createdAt,value
2018-04-18T00:02:27.217Z,10.40
2018-04-18T00:04:55.328Z,10.30
2018-04-18T00:07:23.720Z,10.30
2018-04-18T00:09:51.832Z,10.30
2018-04-18T00:12:19.983Z,10.20
2018-04-18T00:14:48.183Z,10.20
2018-04-18T00:17:17.119Z,10.30
2018-04-18T00:19:46.008Z,10.30
2018-04-18T00:22:15.004Z,10.30
2018-04-18T00:24:43.116Z,10.20
2018-04-18T00:27:11.312Z,10.30
2018-04-18T00:29:40.205Z,10.20
2018-04-18T00:32:09.122Z,10.20
2018-04-18T00:34:37.990Z,10.20
2018-04-18T00:37:07.003Z,10.10
2018-04-18T00:39:35.183Z,10.00
2018-04-18T00:42:03.421Z,9.90
2018-04-18T00:44:31.588Z,9.90
2018-04-18T00:46:59.707Z,9.90
2018-04-18T00:49:27.832Z,9.90
2018-04-18T00:51:56.818Z,10.00
2018-04-18T00:54:25.699Z,9.90
2018-04-18T00:56:55.342Z,9.90
2018-04-18T00:59:24.228Z,9.80
2018-04-18T01:01:52.375Z,9.80
2018-04-18T01:04:21.280Z,9.60
2018-04-18T01:06:50.146Z,9.60
2018-04-18T01:09:19.040Z,9.50
2018-04-18T01:11:47.923Z,9.50
2018-04-18T01:14:16.803Z,9.40
2018-04-18T01:16:44.913Z,9.40
2018-04-18T01:19:13.039Z,9.40
2018-04-18T01:21:41.176Z,9.40
2018-04-18T01:24:09.308Z,9.40
2018-04-18T01:26:37.442Z,9.40
2018-04-18T01:29:05.543Z,9.50
2018-04-18T01:31:34.422Z,9.60
2018-04-18T01:34:02.660Z,9.50
2018-04-18T01:36:30.826Z,9.50
2018-04-18T01:38:58.957Z,9.60
2018-04-18T01:41:27.838Z,9.50
2018-04-18T01:43:56.771Z,9.40
2018-04-18T01:46:25.734Z,9.30
2018-04-18T01:49:06.535Z,9.30
2018-04-18T01:51:34.672Z,9.30
2018-04-18T01:54:03.563Z,9.20
2018-04-18T01:56:32.443Z,9.20
2018-04-18T01:59:01.370Z,9.20
2018-04-18T02:01:30.319Z,9.20
2018-04-18T02:03:59.215Z,9.20
2018-04-18T02:06:28.107Z,9.30
2018-04-18T02:08:57.029Z,9.20
2018-04-18T02:11:25.896Z,9.20
2018-04-18T02:13:54.850Z,9.20
2018-04-18T02:16:22.972Z,9.20
2018-04-18T02:18:51.119Z,9.20
2018-04-18T02:21:20.103Z,9.10
2018-04-18T02:23:49.008Z,9.10
2018-04-18T02:26:17.871Z,9.10
2018-04-18T02:28:45.994Z,9.00
2018-04-18T02:31:14.113Z,9.10
2018-04-18T02:33:42.336Z,9.10
2018-04-18T02:36:10.427Z,9.00
2018-04-18T02:38:38.548Z,9.00
2018-04-18T02:41:07.434Z,8.90
2018-04-18T02:43:36.312Z,8.80
2018-04-18T02:46:04.432Z,8.80
2018-04-18T02:48:32.558Z,8.80
2018-04-18T02:51:01.453Z,8.80
2018-04-18T02:53:30.335Z,8.70
2018-04-18T02:55:59.232Z,8.70
2018-04-18T02:58:28.125Z,8.70
2018-04-18T03:00:56.326Z,8.70
2018-04-18T03:03:24.440Z,8.70
2018-04-18T03:05:52.628Z,8.70
2018-04-18T03:08:21.513Z,8.60
2018-04-18T03:10:49.641Z,8.60
2018-04-18T03:13:17.803Z,8.60
2018-04-18T03:15:45.927Z,8.60
2018-04-18T03:18:14.086Z,8.60
2018-04-18T03:20:42.216Z,8.50
2018-04-18T03:23:10.390Z,8.60
2018-04-18T03:25:38.522Z,8.60
2018-04-18T03:28:07.415Z,8.60
2018-04-18T03:30:36.338Z,8.60
2018-04-18T03:33:04.432Z,8.50
2018-04-18T03:35:32.636Z,8.50
2018-04-18T03:38:00.857Z,8.40
2018-04-18T03:40:30.631Z,8.30
2018-04-18T03:42:59.512Z,8.30
2018-04-18T03:45:27.729Z,8.20
2018-04-18T03:47:55.827Z,8.20
2018-04-18T03:50:24.007Z,8.20
2018-04-18T03:52:52.218Z,8.20
2018-04-18T03:55:21.089Z,8.20
2018-04-18T03:57:49.203Z,8.20
2018-04-18T04:00:17.337Z,8.20
2018-04-18T04:02:45.454Z,8.20
2018-04-18T04:05:13.675Z,8.20
2018-04-18T04:07:41.794Z,8.20
2018-04-18T04:10:09.933Z,8.20
2018-04-18T04:12:38.850Z,8.10
2018-04-18T04:15:07.842Z,8.10
2018-04-18T04:17:48.435Z,8.10
2018-04-18T04:20:28.482Z,8.10
2018-04-18T04:23:08.406Z,8.10
2018-04-18T04:25:36.535Z,8.10
2018-04-18T04:28:05.467Z,8.10
2018-04-18T04:30:33.598Z,8.10
2018-04-18T04:33:01.712Z,8.00
2018-04-18T04:35:29.863Z,8.10
2018-04-18T04:37:57.987Z,8.10
2018-04-18T04:40:26.156Z,8.10
2018-04-18T04:42:54.299Z,8.10
2018-04-18T04:45:22.475Z,8.10
2018-04-18T04:47:50.565Z,8.20
2018-04-18T04:50:18.697Z,8.20
2018-04-18T04:52:47.055Z,8.20
2018-04-18T04:55:15.199Z,8.30
2018-04-18T04:57:43.324Z,8.30
2018-04-18T05:00:11.434Z,8.40
2018-04-18T05:02:39.660Z,8.40
2018-04-18T05:05:08.554Z,8.60
2018-04-18T05:07:36.660Z,8.50
2018-04-18T05:10:04.796Z,8.60
2018-04-18T05:12:32.985Z,8.70
2018-04-18T05:15:01.110Z,8.70
2018-04-18T05:17:29.324Z,8.80
2018-04-18T05:19:57.436Z,8.90
2018-04-18T05:22:25.539Z,9.00
2018-04-18T05:24:54.554Z,9.20
2018-04-18T05:27:23.546Z,9.40
2018-04-18T05:29:52.407Z,9.60
2018-04-18T05:32:21.311Z,9.60
2018-04-18T05:34:49.439Z,9.60
2018-04-18T05:37:17.644Z,9.80
2018-04-18T05:39:46.533Z,10.00
2018-04-18T05:42:15.549Z,10.00
2018-04-18T05:44:43.696Z,10.00
2018-04-18T05:47:12.583Z,10.30
2018-04-18T05:49:41.499Z,10.40
2018-04-18T05:52:09.644Z,10.40
2018-04-18T05:54:38.567Z,10.70
2018-04-18T05:57:06.699Z,10.70
2018-04-18T05:59:35.679Z,11.00
2018-04-18T06:02:04.686Z,11.10
2018-04-18T06:04:32.813Z,11.10
2018-04-18T06:07:00.931Z,11.30
2018-04-18T06:09:29.908Z,11.70
2018-04-18T06:11:58.812Z,11.90
2018-04-18T06:14:27.013Z,11.90
2018-04-18T06:16:55.117Z,12.00
2018-04-18T06:19:23.283Z,12.00
2018-04-18T06:21:51.381Z,12.10
2018-04-18T06:24:20.284Z,12.20
2018-04-18T06:26:48.429Z,12.20
2018-04-18T06:29:16.565Z,12.30
2018-04-18T06:31:44.705Z,12.40
2018-04-18T06:34:13.598Z,12.60
2018-04-18T06:36:42.617Z,12.70
2018-04-18T06:39:10.716Z,12.70
2018-04-18T06:41:38.954Z,12.80
2018-04-18T06:44:07.815Z,12.90
2018-04-18T06:46:35.979Z,12.90
2018-04-18T06:49:05.007Z,13.10
2018-04-18T06:51:33.898Z,13.20
2018-04-18T06:54:02.069Z,13.20
2018-04-18T06:56:30.216Z,13.30
2018-04-18T06:58:58.413Z,13.40
2018-04-18T07:01:26.557Z,13.40
2018-04-18T07:03:54.699Z,13.50
2018-04-18T07:06:22.931Z,13.60
2018-04-18T07:08:51.104Z,13.70
2018-04-18T07:11:19.195Z,13.80
2018-04-18T07:13:47.339Z,13.90
2018-04-18T07:16:15.479Z,14.00
2018-04-18T07:18:43.692Z,14.10
2018-04-18T07:21:11.811Z,14.20
2018-04-18T07:23:40.036Z,14.30
2018-04-18T07:26:08.135Z,14.40
2018-04-18T07:28:36.350Z,14.50
2018-04-18T07:31:05.343Z,14.70
2018-04-18T07:33:34.362Z,14.80
2018-04-18T07:36:02.534Z,14.80
2018-04-18T07:38:30.709Z,14.90
2018-04-18T07:40:58.815Z,15.00
2018-04-18T07:43:27.007Z,15.20
2018-04-18T07:45:55.901Z,15.40
2018-04-18T07:48:24.828Z,15.50
2018-04-18T07:50:54.849Z,15.50
2018-04-18T07:53:23.222Z,15.60
2018-04-18T07:55:51.382Z,15.70
2018-04-18T07:58:20.277Z,16.00
2018-04-18T08:00:48.454Z,15.90
2018-04-18T08:03:17.353Z,16.20
2018-04-18T08:05:45.481Z,16.20
2018-04-18T08:08:14.368Z,16.50
2018-04-18T08:10:43.261Z,16.50
2018-04-18T08:13:12.204Z,16.60
2018-04-18T08:15:40.361Z,16.60
2018-04-18T08:18:08.491Z,16.70
2018-04-18T08:20:37.399Z,16.90
2018-04-18T08:23:05.538Z,16.90
2018-04-18T08:25:33.666Z,17.00
2018-04-18T08:28:01.847Z,17.20
2018-04-18T08:30:31.634Z,17.30
2018-04-18T08:32:59.783Z,17.40
2018-04-18T08:35:28.716Z,17.70
2018-04-18T08:37:56.837Z,17.70
2018-04-18T08:40:25.743Z,17.90
2018-04-18T08:42:54.658Z,18.00
2018-04-18T08:45:22.753Z,18.00
2018-04-18T08:47:50.966Z,18.10
2018-04-18T08:50:19.857Z,18.20
2018-04-18T08:52:48.778Z,18.20
2018-04-18T08:55:16.887Z,18.20
2018-04-18T08:57:46.531Z,18.40
2018-04-18T09:00:15.454Z,18.60
2018-04-18T09:02:43.615Z,18.60
2018-04-18T09:05:11.732Z,18.70
2018-04-18T09:07:39.962Z,18.80
2018-04-18T09:10:08.066Z,18.90
2018-04-18T09:12:36.306Z,19.00
2018-04-18T09:15:05.305Z,19.20
2018-04-18T09:17:33.571Z,19.20
2018-04-18T09:20:02.459Z,19.30
2018-04-18T09:22:30.572Z,19.30
2018-04-18T09:24:59.473Z,19.60
2018-04-18T09:27:27.693Z,19.50
2018-04-18T09:29:56.659Z,19.70
2018-04-18T09:32:25.545Z,19.80
2018-04-18T09:34:54.463Z,19.80
2018-04-18T09:37:22.638Z,19.80
2018-04-18T09:39:50.813Z,19.80
2018-04-18T09:42:18.981Z,19.80
2018-04-18T09:44:47.944Z,20.00
2018-04-18T09:47:16.864Z,20.10
2018-04-18T09:49:45.002Z,20.10
2018-04-18T09:52:13.910Z,20.40
2018-04-18T09:54:42.098Z,20.30
2018-04-18T09:57:10.267Z,20.40
2018-04-18T09:59:39.157Z,20.40
2018-04-18T10:05:22.278Z,20.60
2018-04-18T10:07:51.181Z,20.70
2018-04-18T10:10:19.427Z,20.70
2018-04-18T10:12:47.500Z,20.70
2018-04-18T10:15:16.630Z,20.70
2018-04-18T10:17:45.488Z,20.80
2018-04-18T10:20:14.377Z,21.00
2018-04-18T10:22:43.263Z,21.10
2018-04-18T10:25:12.276Z,21.20
2018-04-18T10:27:40.458Z,21.20
2018-04-18T10:30:09.449Z,21.40
2018-04-18T10:32:38.441Z,21.50
2018-04-18T10:35:07.398Z,21.50
2018-04-18T10:37:36.287Z,21.60
2018-04-18T10:40:05.320Z,21.70
2018-04-18T10:42:33.424Z,21.60
2018-04-18T10:45:01.620Z,21.70
2018-04-18T10:47:30.500Z,21.90
2018-04-18T10:49:58.633Z,21.80
2018-04-18T10:52:26.837Z,21.80
2018-04-18T10:55:00.247Z,21.90
2018-04-18T10:57:28.356Z,22.00
2018-04-18T10:59:56.503Z,22.10
2018-04-18T11:02:25.380Z,22.30
2018-04-18T11:04:54.368Z,22.40
2018-04-18T11:07:23.261Z,22.50
2018-04-18T11:09:52.162Z,22.60
2018-04-18T11:12:21.044Z,22.70
2018-04-18T11:14:49.965Z,22.70
2018-04-18T11:17:18.091Z,22.70
2018-04-18T11:19:46.309Z,22.60
2018-04-18T11:22:15.272Z,22.80
2018-04-18T11:24:44.168Z,22.90
2018-04-18T11:27:13.052Z,23.00
2018-04-18T11:29:42.072Z,23.00
2018-04-18T11:32:10.963Z,23.10
2018-04-18T11:34:39.078Z,23.10
2018-04-18T11:37:07.198Z,23.20
2018-04-18T11:39:35.391Z,23.20
2018-04-18T11:42:03.530Z,23.30
2018-04-18T11:44:32.439Z,23.40
2018-04-18T11:47:01.329Z,23.40
2018-04-18T11:49:30.323Z,23.50
2018-04-18T11:51:59.221Z,23.50
2018-04-18T11:54:27.381Z,23.50
2018-04-18T11:56:56.260Z,23.60
2018-04-18T11:59:25.145Z,23.70
2018-04-18T12:01:53.264Z,23.70
2018-04-18T12:04:21.402Z,23.70
2018-04-18T12:06:49.527Z,23.80
2018-04-18T12:09:17.668Z,23.70
2018-04-18T12:11:45.927Z,23.70
2018-04-18T12:14:14.028Z,23.80
2018-04-18T12:16:42.265Z,23.70
2018-04-18T12:19:10.446Z,23.80
2018-04-18T12:21:38.611Z,24.00
2018-04-18T12:24:07.483Z,24.10
2018-04-18T12:26:35.618Z,24.10
2018-04-18T12:29:03.742Z,24.10
2018-04-18T12:31:31.912Z,24.30
2018-04-18T12:34:00.801Z,24.40
2018-04-18T12:36:29.692Z,24.40
2018-04-18T12:38:57.865Z,24.40
2018-04-18T12:41:26.040Z,24.40
2018-04-18T12:43:54.212Z,24.40
2018-04-18T12:46:23.103Z,24.40
2018-04-18T12:48:51.374Z,24.40
2018-04-18T12:51:19.487Z,24.70
2018-04-18T12:53:47.719Z,24.80
2018-04-18T12:56:16.687Z,24.90
2018-04-18T12:58:45.571Z,24.90
2018-04-18T13:01:14.472Z,24.80
2018-04-18T13:03:42.634Z,24.80
2018-04-18T13:06:11.651Z,25.00
2018-04-18T13:08:39.763Z,25.00
2018-04-18T13:11:08.001Z,25.00
2018-04-18T13:13:36.169Z,25.00
2018-04-18T13:16:05.068Z,25.10
2018-04-18T13:18:33.232Z,25.10
2018-04-18T13:21:01.375Z,25.20
2018-04-18T13:23:30.271Z,25.50
2018-04-18T13:25:58.464Z,25.40
2018-04-18T13:28:27.466Z,25.60
2018-04-18T13:30:55.642Z,25.50
2018-04-18T13:33:23.812Z,25.60
2018-04-18T13:35:51.954Z,25.70
2018-04-18T13:38:20.824Z,25.80
2018-04-18T13:40:49.044Z,25.80
2018-04-18T13:43:17.146Z,25.90
2018-04-18T13:45:45.381Z,26.10
2018-04-18T13:48:13.556Z,26.10
2018-04-18T13:50:41.727Z,26.20
2018-04-18T13:53:10.600Z,26.70
2018-04-18T13:55:39.551Z,27.10
2018-04-18T13:58:07.680Z,27.00
2018-04-18T14:00:35.780Z,27.60
2018-04-18T14:03:04.024Z,28.40
2018-04-18T14:05:32.306Z,29.30
2018-04-18T14:08:00.476Z,30.30
2018-04-18T14:10:28.643Z,31.70
2018-04-18T14:12:57.635Z,33.60
2018-04-18T14:15:26.524Z,34.50
2018-04-18T14:17:55.517Z,35.50
2018-04-18T14:20:23.693Z,35.30
2018-04-18T14:22:51.794Z,36.50
2018-04-18T14:25:20.011Z,37.50
2018-04-18T14:27:49.028Z,38.50
2018-04-18T14:30:18.018Z,38.90
2018-04-18T14:32:46.904Z,39.20
2018-04-18T14:35:15.083Z,39.10
2018-04-18T14:37:43.261Z,39.50
2018-04-18T14:40:11.403Z,40.20
2018-04-18T14:42:39.597Z,40.10
2018-04-18T14:45:07.704Z,39.70
2018-04-18T14:47:35.839Z,40.30
2018-04-18T14:50:04.014Z,40.90
2018-04-18T14:52:32.904Z,43.00
2018-04-18T14:55:01.013Z,42.90
2018-04-18T14:57:29.216Z,43.70
2018-04-18T14:59:58.239Z,44.30
2018-04-18T15:02:27.115Z,44.90
2018-04-18T15:04:55.299Z,44.80
2018-04-18T15:07:24.292Z,46.70
2018-04-18T15:09:52.576Z,46.70
2018-04-18T15:12:20.702Z,46.70
2018-04-18T15:14:48.882Z,47.10
2018-04-18T15:17:17.771Z,46.00
2018-04-18T15:19:46.760Z,45.30
2018-04-18T15:22:15.790Z,45.00
2018-04-18T15:24:44.062Z,44.90
2018-04-18T15:27:12.160Z,45.20
2018-04-18T15:29:40.420Z,45.00
2018-04-18T15:32:08.558Z,44.60
2018-04-18T15:34:37.569Z,45.00
2018-04-18T15:37:06.457Z,44.20
2018-04-18T15:39:34.633Z,44.20
2018-04-18T15:42:02.806Z,44.50
2018-04-18T15:44:31.796Z,44.30
2018-04-18T15:47:00.767Z,44.80
2018-04-18T15:49:28.929Z,44.80
2018-04-18T15:51:57.852Z,44.00
2018-04-18T15:54:26.733Z,43.60
2018-04-18T15:56:54.914Z,43.50
2018-04-18T15:59:23.948Z,43.20
2018-04-18T16:01:52.185Z,43.20
2018-04-18T16:04:20.359Z,43.00
2018-04-18T16:06:48.459Z,42.70
2018-04-18T16:09:16.661Z,42.70
2018-04-18T16:11:45.585Z,42.30
2018-04-18T16:14:14.582Z,41.30
2018-04-18T16:16:42.672Z,41.30
2018-04-18T16:19:10.828Z,41.20
2018-04-18T16:21:38.976Z,39.20
2018-04-18T16:24:07.897Z,34.70
2018-04-18T16:26:36.065Z,34.50
2018-04-18T16:29:15.992Z,32.80
2018-04-18T16:31:44.994Z,29.90
2018-04-18T16:34:13.116Z,29.80
2018-04-18T16:36:41.310Z,29.10
2018-04-18T16:39:10.232Z,27.60
2018-04-18T16:41:38.403Z,27.50
2018-04-18T16:44:06.522Z,27.00
2018-04-18T16:46:34.749Z,26.50
2018-04-18T16:49:02.901Z,26.00
2018-04-18T16:51:31.814Z,25.10
2018-04-18T16:53:59.954Z,25.00
2018-04-18T16:56:28.844Z,24.60
2018-04-18T16:58:57.750Z,24.20
2018-04-18T17:01:25.935Z,24.20
2018-04-18T17:03:54.107Z,23.90
2018-04-18T17:06:22.214Z,23.50
2018-04-18T17:08:50.452Z,23.30
2018-04-18T17:11:18.559Z,23.10
2018-04-18T17:13:46.899Z,22.90
2018-04-18T17:16:15.073Z,22.80
2018-04-18T17:18:43.175Z,22.70
2018-04-18T17:21:11.294Z,22.60
2018-04-18T17:23:39.435Z,22.40
2018-04-18T17:26:09.092Z,22.10
2018-04-18T17:28:37.977Z,22.00
2018-04-18T17:31:06.161Z,22.00
2018-04-18T17:33:34.275Z,21.90
2018-04-18T17:36:02.471Z,21.70
2018-04-18T17:38:30.670Z,21.60
2018-04-18T17:40:59.596Z,21.40
2018-04-18T17:43:27.739Z,21.40
2018-04-18T17:45:55.913Z,21.30
2018-04-18T17:48:24.079Z,21.20
2018-04-18T17:50:52.965Z,20.90
2018-04-18T17:53:21.937Z,20.70
2018-04-18T17:55:50.952Z,20.50
2018-04-18T17:58:19.943Z,20.40
2018-04-18T18:00:49.915Z,20.30
2018-04-18T18:03:19.020Z,20.20
2018-04-18T18:05:47.939Z,20.10
2018-04-18T18:08:16.042Z,20.00
2018-04-18T18:10:44.189Z,20.00
2018-04-18T18:13:12.341Z,19.90
2018-04-18T18:15:41.229Z,19.80
2018-04-18T18:18:09.358Z,19.70
2018-04-18T18:20:37.533Z,19.60
2018-04-18T18:23:05.662Z,19.60
2018-04-18T18:25:33.799Z,19.40
2018-04-18T18:28:02.731Z,19.20
2018-04-18T18:30:30.882Z,19.10
2018-04-18T18:32:59.047Z,19.10
2018-04-18T18:35:28.064Z,18.90
2018-04-18T18:37:56.220Z,18.80
2018-04-18T18:40:24.425Z,18.80
2018-04-18T18:42:52.550Z,18.70
2018-04-18T18:45:21.498Z,18.50
2018-04-18T18:47:49.626Z,18.50
2018-04-18T18:50:17.803Z,18.50
2018-04-18T18:52:45.948Z,18.40
2018-04-18T18:55:14.106Z,18.30
2018-04-18T18:57:42.260Z,18.30
2018-04-18T19:00:10.506Z,18.20
2018-04-18T19:02:38.647Z,18.10
2018-04-18T19:05:07.624Z,18.00
2018-04-18T19:07:35.803Z,17.90
2018-04-18T19:10:04.729Z,17.80
2018-04-18T19:12:32.940Z,17.80
2018-04-18T19:15:01.113Z,17.70
2018-04-18T19:17:29.285Z,17.60
2018-04-18T19:19:57.625Z,17.40
2018-04-18T19:22:25.787Z,17.30
2018-04-18T19:24:53.976Z,17.20
2018-04-18T19:27:22.140Z,17.10
2018-04-18T19:29:50.322Z,17.10
2018-04-18T19:32:18.484Z,17.00
2018-04-18T19:34:46.661Z,17.00
2018-04-18T19:37:14.853Z,16.90
2018-04-18T19:39:43.105Z,16.90
2018-04-18T19:42:11.241Z,16.90
2018-04-18T19:44:39.414Z,16.80
2018-04-18T19:47:07.569Z,16.80
2018-04-18T19:49:35.804Z,16.70
2018-04-18T19:52:03.932Z,16.70
2018-04-18T19:54:32.832Z,16.60
2018-04-18T19:57:01.001Z,16.50
2018-04-18T19:59:29.198Z,16.50
2018-04-18T20:01:57.375Z,16.50
2018-04-18T20:04:25.536Z,16.40
2018-04-18T20:06:53.634Z,16.30
2018-04-18T20:09:21.797Z,16.20
2018-04-18T20:11:49.960Z,16.20
2018-04-18T20:14:18.109Z,16.10
2018-04-18T20:16:47.244Z,15.90
2018-04-18T20:19:15.401Z,15.80
2018-04-18T20:21:43.575Z,15.80
2018-04-18T20:24:11.726Z,15.80
2018-04-18T20:26:39.900Z,15.70
2018-04-18T20:29:08.062Z,15.60
2018-04-18T20:31:37.099Z,15.50
2018-04-18T20:34:05.202Z,15.50
2018-04-18T20:36:40.891Z,15.40
2018-04-18T20:39:09.803Z,15.30
2018-04-18T20:41:38.075Z,15.30
2018-04-18T20:44:06.198Z,15.30
2018-04-18T20:46:35.228Z,15.10
2018-04-18T20:49:03.352Z,15.10
2018-04-18T20:51:31.523Z,15.00
2018-04-18T20:53:59.675Z,15.00
2018-04-18T20:56:27.818Z,15.00
2018-04-18T20:58:56.084Z,14.90
2018-04-18T21:01:24.230Z,14.90
2018-04-18T21:03:53.164Z,14.80
2018-04-18T21:06:21.396Z,14.70
2018-04-18T21:08:50.347Z,14.60
2018-04-18T21:11:18.589Z,14.60
2018-04-18T21:13:47.534Z,14.60
2018-04-18T21:16:15.616Z,14.50
2018-04-18T21:18:43.835Z,14.50
2018-04-18T21:21:11.950Z,14.40
2018-04-18T21:23:40.874Z,14.40
2018-04-18T21:26:09.021Z,14.40
2018-04-18T21:28:37.236Z,14.40
2018-04-18T21:31:05.412Z,14.40
2018-04-18T21:33:33.540Z,14.40
2018-04-18T21:36:02.570Z,14.30
2018-04-18T21:38:30.757Z,14.30
2018-04-18T21:40:58.883Z,14.30
2018-04-18T21:43:27.781Z,14.20
2018-04-18T21:45:55.947Z,14.20
2018-04-18T21:48:24.872Z,14.20
2018-04-18T21:50:53.004Z,14.20
2018-04-18T21:53:21.132Z,14.20
2018-04-18T21:55:49.377Z,14.10
2018-04-18T21:58:18.369Z,14.00
2018-04-18T22:00:46.555Z,14.00
2018-04-18T22:03:14.817Z,14.00
2018-04-18T22:05:42.933Z,13.90
2018-04-18T22:08:11.170Z,13.80
2018-04-18T22:10:39.335Z,13.80
2018-04-18T22:13:07.488Z,13.80
2018-04-18T22:15:36.701Z,13.70
2018-04-18T22:18:05.700Z,13.60
2018-04-18T22:20:33.803Z,13.60
2018-04-18T22:23:01.955Z,13.60
2018-04-18T22:25:30.213Z,13.60
2018-04-18T22:27:58.386Z,13.50
2018-04-18T22:30:26.556Z,13.50
2018-04-18T22:32:54.676Z,13.50
2018-04-18T22:35:22.863Z,13.50
2018-04-18T22:37:51.765Z,13.50
2018-04-18T22:40:19.907Z,13.40
2018-04-18T22:42:48.045Z,13.40
2018-04-18T22:45:16.179Z,13.40
2018-04-18T22:47:45.076Z,13.40
2018-04-18T22:50:13.207Z,13.40
2018-04-18T22:52:41.422Z,13.40
2018-04-18T22:55:09.616Z,13.40
2018-04-18T22:57:37.715Z,13.30
2018-04-18T23:00:07.389Z,13.20
2018-04-18T23:02:35.569Z,13.20
2018-04-18T23:05:03.702Z,13.20
2018-04-18T23:07:32.586Z,13.20
2018-04-18T23:10:01.485Z,13.20
2018-04-18T23:12:29.614Z,13.20
2018-04-18T23:14:57.760Z,13.10
2018-04-18T23:17:25.895Z,13.10
2018-04-18T23:19:54.782Z,13.10
2018-04-18T23:22:33.617Z,13.10
2018-04-18T23:25:01.823Z,13.00
2018-04-18T23:27:29.951Z,13.00
2018-04-18T23:29:58.934Z,13.00
2018-04-18T23:32:27.855Z,12.90
2018-04-18T23:34:56.040Z,12.90
2018-04-18T23:37:24.169Z,12.90
2018-04-18T23:39:53.058Z,12.80
2018-04-18T23:42:21.213Z,12.80
2018-04-18T23:44:49.370Z,12.80
2018-04-18T23:47:17.525Z,12.80
2018-04-18T23:49:45.827Z,12.70
2018-04-18T23:52:14.068Z,12.60
2018-04-18T23:54:42.175Z,12.60
2018-04-18T23:57:10.413Z,12.60
2018-04-18T23:59:38.523Z,12.60
